sensor_id;sensor_type;location;lat;lon;timestamp;pressure;altitude;pressure_sealevel;temperature;humidity
53440;BME280;39333;47.044;15.080;2023-01-25T00:00:44;97592.44;;;1.00;85.01
53440;BME280;39333;47.044;15.080;2023-01-25T00:03:11;97591.47;;;1.01;85.31
53440;BME280;39333;47.044;15.080;2023-01-25T00:05:37;97590.50;;;1.02;85.14
53440;BME280;39333;47.044;15.080;2023-01-25T00:08:05;97579.38;;;1.00;85.26
53440;BME280;39333;47.044;15.080;2023-01-25T00:10:31;97583.50;;;1.03;85.32
53440;BME280;39333;47.044;15.080;2023-01-25T00:12:58;97584.31;;;1.03;85.68
53440;BME280;39333;47.044;15.080;2023-01-25T00:15:25;97593.25;;;1.01;85.37
53440;BME280;39333;47.044;15.080;2023-01-25T00:17:52;97591.47;;;1.01;85.46
53440;BME280;39333;47.044;15.080;2023-01-25T00:20:19;97587.75;;;1.04;85.30
53440;BME280;39333;47.044;15.080;2023-01-25T00:22:46;97583.34;;;1.04;85.42
53440;BME280;39333;47.044;15.080;2023-01-25T00:25:13;97583.34;;;1.04;85.18
53440;BME280;39333;47.044;15.080;2023-01-25T00:27:40;97581.69;;;1.03;85.31
53440;BME280;39333;47.044;15.080;2023-01-25T00:30:07;97582.53;;;1.04;85.61
53440;BME280;39333;47.044;15.080;2023-01-25T00:33:01;97584.16;;;1.05;85.59
53440;BME280;39333;47.044;15.080;2023-01-25T00:35:33;97585.94;;;1.04;85.60
53440;BME280;39333;47.044;15.080;2023-01-25T00:38:02;97582.97;;;0.99;85.95
53440;BME280;39333;47.044;15.080;2023-01-25T00:40:31;97582.97;;;0.99;86.35
53440;BME280;39333;47.044;15.080;2023-01-25T00:42:58;97576.75;;;1.00;86.57
53440;BME280;39333;47.044;15.080;2023-01-25T00:45:26;97580.88;;;1.03;87.12
53440;BME280;39333;47.044;15.080;2023-01-25T00:47:54;97583.63;;;1.01;87.97
53440;BME280;39333;47.044;15.080;2023-01-25T00:50:22;97591.41;;;0.93;87.84
53440;BME280;39333;47.044;15.080;2023-01-25T00:52:49;97594.16;;;0.92;88.49
53440;BME280;39333;47.044;15.080;2023-01-25T00:55:16;97595.66;;;0.94;88.61
53440;BME280;39333;47.044;15.080;2023-01-25T00:57:43;97602.38;;;0.97;88.29
53440;BME280;39333;47.044;15.080;2023-01-25T01:00:10;97596.00;;;0.99;87.90
53440;BME280;39333;47.044;15.080;2023-01-25T01:02:37;97603.56;;;1.02;87.67
53440;BME280;39333;47.044;15.080;2023-01-25T01:05:05;97603.41;;;1.04;87.72
53440;BME280;39333;47.044;15.080;2023-01-25T01:07:33;97599.00;;;1.04;87.04
53440;BME280;39333;47.044;15.080;2023-01-25T01:10:00;97603.56;;;1.02;86.64
53440;BME280;39333;47.044;15.080;2023-01-25T01:12:27;97601.38;;;0.98;87.04
53440;BME280;39333;47.044;15.080;2023-01-25T01:14:54;97597.97;;;0.97;86.97
53440;BME280;39333;47.044;15.080;2023-01-25T01:17:22;97596.97;;;0.98;87.04
53440;BME280;39333;47.044;15.080;2023-01-25T01:19:49;97595.03;;;1.00;87.37
53440;BME280;39333;47.044;15.080;2023-01-25T01:22:17;97597.06;;;1.07;87.89
53440;BME280;39333;47.044;15.080;2023-01-25T01:24:44;97590.50;;;1.02;87.70
53440;BME280;39333;47.044;15.080;2023-01-25T01:27:12;97596.84;;;1.00;86.88
53440;BME280;39333;47.044;15.080;2023-01-25T01:29:39;97592.44;;;1.00;86.73
53440;BME280;39333;47.044;15.080;2023-01-25T01:32:06;97592.97;;;1.04;87.43
53440;BME280;39333;47.044;15.080;2023-01-25T01:34:36;97584.97;;;1.05;87.98
53440;BME280;39333;47.044;15.080;2023-01-25T01:37:03;97601.38;;;1.16;88.53
53440;BME280;39333;47.044;15.080;2023-01-25T01:39:30;97597.81;;;1.17;88.96
53440;BME280;39333;47.044;15.080;2023-01-25T01:41:57;97594.84;;;1.12;88.91
53440;BME280;39333;47.044;15.080;2023-01-25T01:44:50;97590.59;;;1.11;88.53
53440;BME280;39333;47.044;15.080;2023-01-25T01:49:57;97587.31;;;1.09;87.55
53440;BME280;39333;47.044;15.080;2023-01-25T01:52:31;97584.69;;;1.09;87.30
53440;BME280;39333;47.044;15.080;2023-01-25T01:57:43;97598.28;;;1.12;86.69
53440;BME280;39333;47.044;15.080;2023-01-25T02:00:33;97595.53;;;1.14;86.57
53440;BME280;39333;47.044;15.080;2023-01-25T02:03:01;97593.19;;;1.11;86.36
53440;BME280;39333;47.044;15.080;2023-01-25T02:08:09;97594.84;;;1.12;86.05
53440;BME280;39333;47.044;15.080;2023-01-25T02:10:38;97587.97;;;1.11;85.88
53440;BME280;39333;47.044;15.080;2023-01-25T02:13:06;97584.53;;;1.10;85.78
53440;BME280;39333;47.044;15.080;2023-01-25T02:15:49;97589.63;;;1.12;85.52
53440;BME280;39333;47.044;15.080;2023-01-25T02:18:17;97592.72;;;1.15;85.90
53440;BME280;39333;47.044;15.080;2023-01-25T02:20:46;97583.25;;;1.14;85.91
53440;BME280;39333;47.044;15.080;2023-01-25T02:23:23;97597.00;;;1.16;85.41
53440;BME280;39333;47.044;15.080;2023-01-25T02:25:50;97589.00;;;1.18;85.83
53440;BME280;39333;47.044;15.080;2023-01-25T02:28:29;97587.38;;;1.17;86.29
53440;BME280;39333;47.044;15.080;2023-01-25T02:30:57;97586.53;;;1.16;86.38
53440;BME280;39333;47.044;15.080;2023-01-25T02:33:25;97582.59;;;1.12;86.42
53440;BME280;39333;47.044;15.080;2023-01-25T02:35:59;97572.16;;;1.12;86.80
53440;BME280;39333;47.044;15.080;2023-01-25T02:38:28;97574.63;;;1.14;86.46
53440;BME280;39333;47.044;15.080;2023-01-25T02:41:07;97574.91;;;1.11;86.30
53440;BME280;39333;47.044;15.080;2023-01-25T02:43:35;97577.25;;;1.14;86.20
53440;BME280;39333;47.044;15.080;2023-01-25T02:48:43;97572.50;;;1.17;86.50
53440;BME280;39333;47.044;15.080;2023-01-25T02:51:11;97565.16;;;1.13;86.91
53440;BME280;39333;47.044;15.080;2023-01-25T02:53:39;97564.31;;;1.12;86.81
53440;BME280;39333;47.044;15.080;2023-01-25T02:56:07;97567.75;;;1.13;87.03
53440;BME280;39333;47.044;15.080;2023-01-25T02:58:34;97555.00;;;1.10;87.02
53440;BME280;39333;47.044;15.080;2023-01-25T03:01:01;97554.16;;;1.09;87.37
53440;BME280;39333;47.044;15.080;2023-01-25T03:03:28;97556.50;;;1.12;87.36
53440;BME280;39333;47.044;15.080;2023-01-25T03:05:55;97546.47;;;1.08;87.68
53440;BME280;39333;47.044;15.080;2023-01-25T03:08:24;97541.56;;;1.04;87.65
53440;BME280;39333;47.044;15.080;2023-01-25T03:11:00;97550.75;;;1.09;87.38
53440;BME280;39333;47.044;15.080;2023-01-25T03:13:29;97535.75;;;1.11;86.90
53440;BME280;39333;47.044;15.080;2023-01-25T03:16:08;97535.59;;;1.12;86.81
53440;BME280;39333;47.044;15.080;2023-01-25T03:18:38;97539.31;;;1.10;86.92
53440;BME280;39333;47.044;15.080;2023-01-25T03:23:39;97535.06;;;1.09;86.47
53440;BME280;39333;47.044;15.080;2023-01-25T03:26:19;97543.72;;;1.09;86.75
53440;BME280;39333;47.044;15.080;2023-01-25T03:29:01;97539.66;;;1.15;86.95
53440;BME280;39333;47.044;15.080;2023-01-25T03:31:28;97547.50;;;1.15;86.91
53440;BME280;39333;47.044;15.080;2023-01-25T03:33:55;97535.75;;;1.11;86.77
53440;BME280;39333;47.044;15.080;2023-01-25T03:36:28;97541.16;;;1.17;86.68
53440;BME280;39333;47.044;15.080;2023-01-25T03:38:55;97533.31;;;1.17;86.62
53440;BME280;39333;47.044;15.080;2023-01-25T03:41:25;97529.22;;;1.15;86.44
53440;BME280;39333;47.044;15.080;2023-01-25T03:43:56;97523.69;;;1.18;86.30
53440;BME280;39333;47.044;15.080;2023-01-25T03:46:23;97516.84;;;1.17;86.26
53440;BME280;39333;47.044;15.080;2023-01-25T03:48:51;97523.69;;;1.18;86.25
53440;BME280;39333;47.044;15.080;2023-01-25T03:51:18;97520.41;;;1.16;86.89
53440;BME280;39333;47.044;15.080;2023-01-25T03:53:46;97523.19;;;1.14;87.06
53440;BME280;39333;47.044;15.080;2023-01-25T03:56:15;97514.84;;;1.11;87.62
53440;BME280;39333;47.044;15.080;2023-01-25T03:59:02;97514.69;;;1.12;87.45
53440;BME280;39333;47.044;15.080;2023-01-25T04:01:31;97516.16;;;1.15;87.34
53440;BME280;39333;47.044;15.080;2023-01-25T04:03:58;97509.16;;;1.15;87.38
53440;BME280;39333;47.044;15.080;2023-01-25T04:06:26;97511.59;;;1.17;87.18
53440;BME280;39333;47.044;15.080;2023-01-25T04:08:53;97499.66;;;1.14;86.87
53440;BME280;39333;47.044;15.080;2023-01-25T04:11:22;97505.41;;;1.18;86.48
53440;BME280;39333;47.044;15.080;2023-01-25T04:13:49;97493.47;;;1.15;86.22
53440;BME280;39333;47.044;15.080;2023-01-25T04:16:19;97503.78;;;1.17;86.23
53440;BME280;39333;47.044;15.080;2023-01-25T04:19:12;97507.06;;;1.19;86.14
53440;BME280;39333;47.044;15.080;2023-01-25T04:21:39;97505.41;;;1.18;86.19
53440;BME280;39333;47.044;15.080;2023-01-25T04:24:07;97498.56;;;1.17;86.23
53440;BME280;39333;47.044;15.080;2023-01-25T04:26:37;97493.13;;;1.10;86.00
53440;BME280;39333;47.044;15.080;2023-01-25T04:29:05;97499.63;;;1.06;86.53
53440;BME280;39333;47.044;15.080;2023-01-25T04:31:32;97500.06;;;1.01;86.97
53440;BME280;39333;47.044;15.080;2023-01-25T04:33:59;97503.66;;;1.00;86.94
53440;BME280;39333;47.044;15.080;2023-01-25T04:36:27;97490.44;;;1.02;86.86
53440;BME280;39333;47.044;15.080;2023-01-25T04:38:54;97491.25;;;1.02;86.63
53440;BME280;39333;47.044;15.080;2023-01-25T04:41:21;97490.16;;;1.05;86.63
53440;BME280;39333;47.044;15.080;2023-01-25T04:43:53;97490.66;;;1.09;86.53
53440;BME280;39333;47.044;15.080;2023-01-25T04:46:21;97482.81;;;1.09;86.55
53440;BME280;39333;47.044;15.080;2023-01-25T04:48:48;97485.97;;;1.12;86.89
53440;BME280;39333;47.044;15.080;2023-01-25T04:51:16;97483.34;;;1.12;87.00
53440;BME280;39333;47.044;15.080;2023-01-25T04:53:43;97487.09;;;1.10;86.75
53440;BME280;39333;47.044;15.080;2023-01-25T04:56:10;97482.69;;;1.10;86.20
53440;BME280;39333;47.044;15.080;2023-01-25T04:58:46;97490.97;;;1.05;86.02
53440;BME280;39333;47.044;15.080;2023-01-25T05:01:13;97480.81;;;1.02;85.77
53440;BME280;39333;47.044;15.080;2023-01-25T05:03:40;97482.59;;;1.02;85.53
53440;BME280;39333;47.044;15.080;2023-01-25T05:06:15;97488.78;;;1.01;85.77
53440;BME280;39333;47.044;15.080;2023-01-25T05:08:42;97496.94;;;0.98;85.59
53440;BME280;39333;47.044;15.080;2023-01-25T05:11:09;97489.72;;;0.92;85.66
53440;BME280;39333;47.044;15.080;2023-01-25T05:13:43;97489.72;;;0.92;86.04
53440;BME280;39333;47.044;15.080;2023-01-25T05:16:26;97485.59;;;0.89;85.61
53440;BME280;39333;47.044;15.080;2023-01-25T05:18:54;97483.00;;;0.89;85.86
53440;BME280;39333;47.044;15.080;2023-01-25T05:21:28;97491.78;;;0.88;85.64
53440;BME280;39333;47.044;15.080;2023-01-25T05:24:14;97481.34;;;0.88;85.84
53440;BME280;39333;47.044;15.080;2023-01-25T05:26:41;97489.19;;;0.88;85.74
53440;BME280;39333;47.044;15.080;2023-01-25T05:29:37;97489.34;;;0.87;86.26
53440;BME280;39333;47.044;15.080;2023-01-25T05:32:18;97479.84;;;0.86;86.26
53440;BME280;39333;47.044;15.080;2023-01-25T05:34:47;97486.56;;;0.88;86.17
53440;BME280;39333;47.044;15.080;2023-01-25T05:37:17;97483.16;;;0.88;85.98
53440;BME280;39333;47.044;15.080;2023-01-25T05:39:46;97484.78;;;0.89;85.64
53440;BME280;39333;47.044;15.080;2023-01-25T05:42:15;97490.00;;;0.89;85.57
53440;BME280;39333;47.044;15.080;2023-01-25T05:44:43;97483.72;;;0.82;85.46
53440;BME280;39333;47.044;15.080;2023-01-25T05:47:15;97492.56;;;0.81;85.28
53440;BME280;39333;47.044;15.080;2023-01-25T05:49:42;97487.50;;;0.79;84.99
53440;BME280;39333;47.044;15.080;2023-01-25T05:52:16;97488.59;;;0.77;85.24
53440;BME280;39333;47.044;15.080;2023-01-25T05:54:43;97490.91;;;0.80;85.31
53440;BME280;39333;47.044;15.080;2023-01-25T05:57:13;97491.88;;;0.79;85.12
53440;BME280;39333;47.044;15.080;2023-01-25T05:59:40;97501.22;;;0.81;85.05
53440;BME280;39333;47.044;15.080;2023-01-25T06:02:10;97491.75;;;0.80;85.13
53440;BME280;39333;47.044;15.080;2023-01-25T06:04:38;97489.13;;;0.80;84.97
53440;BME280;39333;47.044;15.080;2023-01-25T06:07:06;97489.88;;;0.73;84.78
53440;BME280;39333;47.044;15.080;2023-01-25T06:09:34;97490.16;;;0.69;85.18
53440;BME280;39333;47.044;15.080;2023-01-25T06:12:01;97494.56;;;0.69;85.16
53440;BME280;39333;47.044;15.080;2023-01-25T06:14:29;97503.06;;;0.71;85.18
53440;BME280;39333;47.044;15.080;2023-01-25T06:16:56;97503.06;;;0.71;85.30
53440;BME280;39333;47.044;15.080;2023-01-25T06:19:34;97510.91;;;0.71;85.10
53440;BME280;39333;47.044;15.080;2023-01-25T06:22:19;97497.16;;;0.69;84.91
53440;BME280;39333;47.044;15.080;2023-01-25T06:24:46;97511.03;;;0.69;84.99
53440;BME280;39333;47.044;15.080;2023-01-25T06:27:13;97512.69;;;0.70;84.92
53440;BME280;39333;47.044;15.080;2023-01-25T06:29:40;97522.00;;;0.73;84.55
53440;BME280;39333;47.044;15.080;2023-01-25T06:32:07;97529.03;;;0.73;84.54
53440;BME280;39333;47.044;15.080;2023-01-25T06:34:34;97529.16;;;0.71;84.63
53440;BME280;39333;47.044;15.080;2023-01-25T06:37:01;97532.31;;;0.75;84.79
53440;BME280;39333;47.044;15.080;2023-01-25T06:39:28;97515.72;;;0.66;84.64
53440;BME280;39333;47.044;15.080;2023-01-25T06:41:55;97529.47;;;0.68;84.68
53440;BME280;39333;47.044;15.080;2023-01-25T06:44:22;97531.72;;;0.63;84.52
53440;BME280;39333;47.044;15.080;2023-01-25T06:46:49;97526.09;;;0.58;84.64
53440;BME280;39333;47.044;15.080;2023-01-25T06:49:16;97537.91;;;0.62;84.90
53440;BME280;39333;47.044;15.080;2023-01-25T06:51:43;97535.63;;;0.67;85.06
53440;BME280;39333;47.044;15.080;2023-01-25T06:54:09;97538.94;;;0.69;85.15
53440;BME280;39333;47.044;15.080;2023-01-25T06:56:36;97536.03;;;0.72;84.80
53440;BME280;39333;47.044;15.080;2023-01-25T06:59:03;97538.78;;;0.70;84.68
53440;BME280;39333;47.044;15.080;2023-01-25T07:01:30;97544.00;;;0.70;84.61
53440;BME280;39333;47.044;15.080;2023-01-25T07:03:58;97549.06;;;0.72;84.96
53440;BME280;39333;47.044;15.080;2023-01-25T07:06:31;97544.00;;;0.70;85.06
53440;BME280;39333;47.044;15.080;2023-01-25T07:09:07;97552.66;;;0.71;84.99
53440;BME280;39333;47.044;15.080;2023-01-25T07:11:34;97550.03;;;0.71;85.16
53440;BME280;39333;47.044;15.080;2023-01-25T07:14:02;97560.50;;;0.71;85.37
53440;BME280;39333;47.044;15.080;2023-01-25T07:16:30;97548.03;;;0.65;85.46
53440;BME280;39333;47.044;15.080;2023-01-25T07:19:04;97558.16;;;0.68;85.70
53440;BME280;39333;47.044;15.080;2023-01-25T07:21:32;97556.22;;;0.70;85.96
53440;BME280;39333;47.044;15.080;2023-01-25T07:24:00;97551.00;;;0.70;85.83
53440;BME280;39333;47.044;15.080;2023-01-25T07:26:31;97554.88;;;0.66;86.09
53440;BME280;39333;47.044;15.080;2023-01-25T07:28:58;97552.66;;;0.71;86.33
53440;BME280;39333;47.044;15.080;2023-01-25T07:31:26;97552.25;;;0.66;86.54
53440;BME280;39333;47.044;15.080;2023-01-25T07:33:55;97544.63;;;0.64;86.90
53440;BME280;39333;47.044;15.080;2023-01-25T07:36:22;97535.78;;;0.65;86.92
53440;BME280;39333;47.044;15.080;2023-01-25T07:38:54;97546.22;;;0.65;87.35
53440;BME280;39333;47.044;15.080;2023-01-25T07:41:22;97539.41;;;0.64;87.27
53440;BME280;39333;47.044;15.080;2023-01-25T07:43:51;97528.28;;;0.62;87.15
53440;BME280;39333;47.044;15.080;2023-01-25T07:46:28;97527.16;;;0.65;87.42
53440;BME280;39333;47.044;15.080;2023-01-25T07:48:55;97521.34;;;0.71;87.60
53440;BME280;39333;47.044;15.080;2023-01-25T07:51:24;97507.69;;;0.77;87.56
53440;BME280;39333;47.044;15.080;2023-01-25T07:53:58;97510.91;;;0.89;87.64
53440;BME280;39333;47.044;15.080;2023-01-25T07:56:31;97507.38;;;0.98;87.06
53440;BME280;39333;47.044;15.080;2023-01-25T07:58:59;97500.16;;;1.10;87.15
53440;BME280;39333;47.044;15.080;2023-01-25T08:01:30;97497.56;;;1.18;87.08
53440;BME280;39333;47.044;15.080;2023-01-25T08:04:02;97493.69;;;1.22;86.50
53440;BME280;39333;47.044;15.080;2023-01-25T08:06:32;97493.31;;;1.17;85.73
53440;BME280;39333;47.044;15.080;2023-01-25T08:09:09;97493.66;;;1.14;86.23
53440;BME280;39333;47.044;15.080;2023-01-25T08:11:37;97484.63;;;1.08;87.02
53440;BME280;39333;47.044;15.080;2023-01-25T08:14:04;97484.47;;;1.10;87.31
53440;BME280;39333;47.044;15.080;2023-01-25T08:16:31;97485.88;;;1.22;87.48
53440;BME280;39333;47.044;15.080;2023-01-25T08:19:00;97489.34;;;1.30;87.08
53440;BME280;39333;47.044;15.080;2023-01-25T08:21:29;97491.19;;;1.38;86.52
53440;BME280;39333;47.044;15.080;2023-01-25T08:23:58;97485.03;;;1.47;85.83
53440;BME280;39333;47.044;15.080;2023-01-25T08:26:25;97478.53;;;1.51;85.22
53440;BME280;39333;47.044;15.080;2023-01-25T08:28:53;97480.41;;;1.59;84.92
53440;BME280;39333;47.044;15.080;2023-01-25T08:31:27;97486.16;;;1.70;85.38
53440;BME280;39333;47.044;15.080;2023-01-25T08:33:56;97489.47;;;1.81;85.18
53440;BME280;39333;47.044;15.080;2023-01-25T08:36:24;97484.59;;;1.86;84.37
53440;BME280;39333;47.044;15.080;2023-01-25T08:39:02;97477.13;;;1.91;83.45
53440;BME280;39333;47.044;15.080;2023-01-25T08:41:31;97476.31;;;1.90;83.01
53440;BME280;39333;47.044;15.080;2023-01-25T08:43:59;97470.75;;;1.93;83.02
53440;BME280;39333;47.044;15.080;2023-01-25T08:46:28;97472.06;;;1.97;82.69
53440;BME280;39333;47.044;15.080;2023-01-25T08:48:58;97474.53;;;1.99;83.02
53440;BME280;39333;47.044;15.080;2023-01-25T08:51:26;97480.94;;;2.04;82.93
53440;BME280;39333;47.044;15.080;2023-01-25T08:53:53;97483.25;;;2.07;82.84
53440;BME280;39333;47.044;15.080;2023-01-25T08:56:20;97489.28;;;2.08;82.67
53440;BME280;39333;47.044;15.080;2023-01-25T08:58:48;97489.44;;;2.06;82.61
53440;BME280;39333;47.044;15.080;2023-01-25T09:01:17;97479.91;;;1.97;82.67
53440;BME280;39333;47.044;15.080;2023-01-25T09:03:47;97485.28;;;1.96;82.75
53440;BME280;39333;47.044;15.080;2023-01-25T09:06:15;97485.81;;;1.99;82.97
53440;BME280;39333;47.044;15.080;2023-01-25T09:08:42;97489.25;;;2.00;83.03
53440;BME280;39333;47.044;15.080;2023-01-25T09:11:14;97491.03;;;1.99;83.16
53440;BME280;39333;47.044;15.080;2023-01-25T09:13:42;97489.75;;;2.03;82.91
53440;BME280;39333;47.044;15.080;2023-01-25T09:16:13;97484.38;;;2.05;82.48
53440;BME280;39333;47.044;15.080;2023-01-25T09:18:43;97478.31;;;2.04;82.55
53440;BME280;39333;47.044;15.080;2023-01-25T09:21:16;97489.97;;;2.10;82.69
53440;BME280;39333;47.044;15.080;2023-01-25T09:23:46;97490.28;;;2.15;82.63
53440;BME280;39333;47.044;15.080;2023-01-25T09:26:30;97477.72;;;2.19;82.94
53440;BME280;39333;47.044;15.080;2023-01-25T09:28:58;97483.59;;;2.21;82.76
53440;BME280;39333;47.044;15.080;2023-01-25T09:31:25;97476.13;;;2.26;82.86
53440;BME280;39333;47.044;15.080;2023-01-25T09:34:14;97466.94;;;2.30;82.72
53440;BME280;39333;47.044;15.080;2023-01-25T09:36:41;97488.06;;;2.36;82.06
53440;BME280;39333;47.044;15.080;2023-01-25T09:39:11;97470.25;;;2.40;82.24
53440;BME280;39333;47.044;15.080;2023-01-25T09:44:27;97467.13;;;2.44;82.15
53440;BME280;39333;47.044;15.080;2023-01-25T09:46:59;97468.47;;;2.49;81.54
53440;BME280;39333;47.044;15.080;2023-01-25T09:49:57;97467.00;;;2.54;81.69
53440;BME280;39333;47.044;15.080;2023-01-25T09:55:16;97461.28;;;2.67;81.54
53440;BME280;39333;47.044;15.080;2023-01-25T09:57:45;97448.19;;;2.67;81.32
53440;BME280;39333;47.044;15.080;2023-01-25T10:00:18;97451.16;;;2.72;81.22
53440;BME280;39333;47.044;15.080;2023-01-25T10:03:10;97457.06;;;2.74;81.11
53440;BME280;39333;47.044;15.080;2023-01-25T10:05:53;97450.84;;;2.75;81.61
53440;BME280;39333;47.044;15.080;2023-01-25T10:11:30;97440.03;;;2.78;80.77
53440;BME280;39333;47.044;15.080;2023-01-25T10:13:58;97434.16;;;2.76;81.00
53440;BME280;39333;47.044;15.080;2023-01-25T10:16:37;97431.84;;;2.73;81.19
53440;BME280;39333;47.044;15.080;2023-01-25T10:25:18;97419.88;;;2.78;81.59
53440;BME280;39333;47.044;15.080;2023-01-25T10:27:57;97409.56;;;2.77;80.79
53440;BME280;39333;47.044;15.080;2023-01-25T10:31:16;97405.00;;;2.79;81.36
53440;BME280;39333;47.044;15.080;2023-01-25T10:33:19;97409.59;;;2.85;81.09
53440;BME280;39333;47.044;15.080;2023-01-25T10:35:48;97398.63;;;2.81;80.75
53440;BME280;39333;47.044;15.080;2023-01-25T10:41:37;97394.84;;;2.68;80.38
53440;BME280;39333;47.044;15.080;2023-01-25T10:44:11;97386.03;;;2.69;80.81
53440;BME280;39333;47.044;15.080;2023-01-25T10:46:58;97385.69;;;2.72;80.67
53440;BME280;39333;47.044;15.080;2023-01-25T10:49:40;97389.28;;;2.79;81.01
53440;BME280;39333;47.044;15.080;2023-01-25T10:52:19;97385.03;;;2.86;81.00
53440;BME280;39333;47.044;15.080;2023-01-25T10:54:48;97380.78;;;2.85;80.45
53440;BME280;39333;47.044;15.080;2023-01-25T10:57:20;97381.44;;;2.87;79.90
53440;BME280;39333;47.044;15.080;2023-01-25T10:59:50;97373.91;;;2.92;79.83
53440;BME280;39333;47.044;15.080;2023-01-25T11:02:38;97368.84;;;2.91;79.65
53440;BME280;39333;47.044;15.080;2023-01-25T11:07:52;97356.56;;;2.91;79.48
53440;BME280;39333;47.044;15.080;2023-01-25T11:10:32;97357.84;;;2.95;79.60
53440;BME280;39333;47.044;15.080;2023-01-25T11:15:54;97350.31;;;3.00;79.85
53440;BME280;39333;47.044;15.080;2023-01-25T11:18:25;97348.66;;;2.99;79.41
53440;BME280;39333;47.044;15.080;2023-01-25T11:21:12;97339.16;;;2.98;79.10
53440;BME280;39333;47.044;15.080;2023-01-25T11:24:14;97333.59;;;3.01;79.04
53440;BME280;39333;47.044;15.080;2023-01-25T11:26:43;97333.59;;;3.01;79.10
53440;BME280;39333;47.044;15.080;2023-01-25T11:29:16;97332.63;;;3.02;78.89
53440;BME280;39333;47.044;15.080;2023-01-25T11:31:46;97322.47;;;2.99;79.32
53440;BME280;39333;47.044;15.080;2023-01-25T11:34:24;97316.91;;;3.02;79.11
53440;BME280;39333;47.044;15.080;2023-01-25T11:51:24;97302.94;;;3.10;78.87
53440;BME280;39333;47.044;15.080;2023-01-25T11:54:19;97304.13;;;3.07;78.60
53440;BME280;39333;47.044;15.080;2023-01-25T12:29:57;97245.06;;;2.80;80.67
53440;BME280;39333;47.044;15.080;2023-01-25T12:35:20;97246.06;;;2.88;80.44
53440;BME280;39333;47.044;15.080;2023-01-25T12:37:48;97232.31;;;2.86;80.12
53440;BME280;39333;47.044;15.080;2023-01-25T12:40:41;97228.19;;;2.91;80.08
53440;BME280;39333;47.044;15.080;2023-01-25T12:43:21;97229.03;;;2.92;80.00
53440;BME280;39333;47.044;15.080;2023-01-25T12:45:50;97227.84;;;2.94;79.67
53440;BME280;39333;47.044;15.080;2023-01-25T12:48:22;97221.63;;;2.95;79.81
53440;BME280;39333;47.044;15.080;2023-01-25T12:50:54;97218.34;;;2.93;79.65
53440;BME280;39333;47.044;15.080;2023-01-25T12:53:34;97211.50;;;2.92;79.45
53440;BME280;39333;47.044;15.080;2023-01-25T12:56:07;97207.88;;;2.93;79.46
53440;BME280;39333;47.044;15.080;2023-01-25T12:58:52;97203.81;;;2.91;79.44
53440;BME280;39333;47.044;15.080;2023-01-25T13:01:30;97200.38;;;2.90;79.45
53440;BME280;39333;47.044;15.080;2023-01-25T13:12:16;97183.25;;;2.71;79.90
53440;BME280;39333;47.044;15.080;2023-01-25T13:14:43;97192.41;;;2.67;79.90
53440;BME280;39333;47.044;15.080;2023-01-25T13:19:48;97185.44;;;2.52;80.66
53440;BME280;39333;47.044;15.080;2023-01-25T13:25:21;97185.72;;;2.73;80.41
53440;BME280;39333;47.044;15.080;2023-01-25T13:27:48;97179.78;;;2.79;80.40
53440;BME280;39333;47.044;15.080;2023-01-25T13:32:58;97171.91;;;2.87;80.23
53440;BME280;39333;47.044;15.080;2023-01-25T13:37:57;97171.19;;;2.93;79.83
53440;BME280;39333;47.044;15.080;2023-01-25T13:40:37;97165.28;;;2.99;79.73
53440;BME280;39333;47.044;15.080;2023-01-25T13:45:39;97161.19;;;2.97;79.33
53440;BME280;39333;47.044;15.080;2023-01-25T13:50:42;97166.91;;;3.00;79.48
53440;BME280;39333;47.044;15.080;2023-01-25T13:55:43;97158.56;;;3.05;79.71
53440;BME280;39333;47.044;15.080;2023-01-25T13:58:19;97156.09;;;3.03;79.52
53440;BME280;39333;47.044;15.080;2023-01-25T14:01:14;97153.16;;;3.06;79.69
53440;BME280;39333;47.044;15.080;2023-01-25T14:03:43;97159.03;;;3.08;79.79
53440;BME280;39333;47.044;15.080;2023-01-25T14:06:17;97158.00;;;3.09;79.97
53440;BME280;39333;47.044;15.080;2023-01-25T14:08:45;97155.41;;;3.09;80.11
53440;BME280;39333;47.044;15.080;2023-01-25T14:11:28;97151.78;;;3.10;79.89
53440;BME280;39333;47.044;15.080;2023-01-25T14:14:30;97155.41;;;3.09;79.58
53440;BME280;39333;47.044;15.080;2023-01-25T14:17:15;97158.22;;;3.08;79.48
53440;BME280;39333;47.044;15.080;2023-01-25T14:19:45;97152.84;;;3.01;79.38
53440;BME280;39333;47.044;15.080;2023-01-25T14:22:27;97157.44;;;2.99;78.87
53440;BME280;39333;47.044;15.080;2023-01-25T14:27:29;97146.19;;;2.91;79.16
53440;BME280;39333;47.044;15.080;2023-01-25T14:29:56;97145.53;;;2.89;79.36
53440;BME280;39333;47.044;15.080;2023-01-25T14:32:25;97163.88;;;2.89;79.53
53440;BME280;39333;47.044;15.080;2023-01-25T14:34:53;97147.69;;;2.85;80.01
53440;BME280;39333;47.044;15.080;2023-01-25T14:37:21;97150.28;;;2.85;80.32
53440;BME280;39333;47.044;15.080;2023-01-25T14:39:49;97147.34;;;2.88;80.64
53440;BME280;39333;47.044;15.080;2023-01-25T14:42:17;97152.75;;;2.87;80.71
53440;BME280;39333;47.044;15.080;2023-01-25T14:44:45;97143.59;;;2.83;80.74
53440;BME280;39333;47.044;15.080;2023-01-25T14:47:27;97147.19;;;2.81;80.73
53440;BME280;39333;47.044;15.080;2023-01-25T14:53:20;97154.72;;;2.76;80.46
53440;BME280;39333;47.044;15.080;2023-01-25T14:55:48;97147.25;;;2.73;80.38
53440;BME280;39333;47.044;15.080;2023-01-25T14:58:21;97147.25;;;2.73;79.95
53440;BME280;39333;47.044;15.080;2023-01-25T15:00:59;97149.38;;;2.70;79.92
53440;BME280;39333;47.044;15.080;2023-01-25T15:03:28;97145.13;;;2.69;79.99
53440;BME280;39333;47.044;15.080;2023-01-25T15:06:02;97150.38;;;2.69;79.99
53440;BME280;39333;47.044;15.080;2023-01-25T15:08:36;97148.06;;;2.66;79.71
53440;BME280;39333;47.044;15.080;2023-01-25T15:11:04;97139.56;;;2.64;79.55
53440;BME280;39333;47.044;15.080;2023-01-25T15:14:00;97132.69;;;2.63;79.57
53440;BME280;39333;47.044;15.080;2023-01-25T15:16:34;97137.94;;;2.63;79.43
53440;BME280;39333;47.044;15.080;2023-01-25T15:19:01;97135.69;;;2.60;79.93
53440;BME280;39333;47.044;15.080;2023-01-25T15:21:29;97139.78;;;2.54;80.14